createdAt,value
2019-04-30T00:00:12.299Z,90.30
2019-04-30T00:02:40.558Z,90.50
2019-04-30T00:05:10.091Z,90.60
2019-04-30T00:07:35.755Z,91.00
2019-04-30T00:10:06.614Z,91.10
2019-04-30T00:12:37.974Z,90.90
2019-04-30T00:15:03.064Z,91.20
2019-04-30T00:17:29.541Z,91.00
2019-04-30T00:19:59.835Z,91.00
2019-04-30T00:22:33.255Z,90.70
2019-04-30T00:24:52.329Z,90.80
2019-04-30T00:27:20.996Z,91.00
2019-04-30T00:29:47.235Z,90.90
2019-04-30T00:32:13.429Z,91.30
2019-04-30T00:34:39.770Z,91.50
2019-04-30T00:37:07.384Z,91.40
2019-04-30T00:39:35.560Z,91.30
2019-04-30T00:42:02.127Z,91.10
2019-04-30T00:44:28.564Z,91.10
2019-04-30T00:46:55.888Z,91.10
2019-04-30T00:49:23.150Z,90.90
2019-04-30T00:51:54.682Z,90.70
2019-04-30T00:54:22.490Z,90.70
2019-04-30T00:56:47.235Z,90.70
2019-04-30T00:59:15.103Z,90.60
2019-04-30T01:02:00.401Z,90.60
2019-04-30T01:04:45.018Z,90.80
2019-04-30T01:07:11.535Z,90.90
2019-04-30T01:09:39.559Z,91.10
2019-04-30T01:12:06.349Z,90.90
2019-04-30T01:14:33.030Z,90.80
2019-04-30T01:17:03.799Z,91.00
2019-04-30T01:19:30.602Z,91.40
2019-04-30T01:21:56.428Z,91.10
2019-04-30T01:24:23.367Z,91.50
2019-04-30T01:26:51.453Z,91.60
2019-04-30T01:29:19.243Z,91.40
2019-04-30T01:31:45.657Z,91.20
2019-04-30T01:34:14.010Z,91.40
2019-04-30T01:36:43.537Z,91.90
2019-04-30T01:39:09.498Z,91.80
2019-04-30T01:41:35.928Z,91.80
2019-04-30T01:44:03.710Z,91.90
2019-04-30T01:46:30.810Z,91.80
2019-04-30T01:48:58.818Z,92.00
2019-04-30T01:51:25.303Z,92.00
2019-04-30T01:53:51.916Z,92.10
2019-04-30T01:56:25.830Z,92.30
2019-04-30T01:58:53.961Z,92.50
2019-04-30T02:01:30.967Z,92.50
2019-04-30T02:03:58.506Z,92.60
2019-04-30T02:06:25.227Z,92.70
2019-04-30T02:08:51.852Z,92.60
2019-04-30T02:11:19.090Z,92.80
2019-04-30T02:13:46.932Z,92.50
2019-04-30T02:16:13.424Z,92.50
2019-04-30T02:18:40.033Z,92.40
2019-04-30T02:21:06.254Z,92.40
2019-04-30T02:23:32.924Z,92.10
2019-04-30T02:25:59.622Z,92.00
2019-04-30T02:28:28.841Z,92.20
2019-04-30T02:30:54.854Z,92.40
2019-04-30T02:33:21.489Z,92.20
2019-04-30T02:35:55.697Z,91.90
2019-04-30T02:38:30.271Z,92.10
2019-04-30T02:40:59.521Z,92.40
2019-04-30T02:43:30.081Z,92.30
2019-04-30T02:45:59.709Z,92.30
2019-04-30T02:48:29.509Z,92.30
2019-04-30T02:51:00.208Z,92.70
2019-04-30T02:53:50.832Z,93.00
2019-04-30T02:56:20.286Z,93.00
2019-04-30T02:58:46.998Z,92.70
2019-04-30T03:01:13.618Z,92.70
2019-04-30T03:03:42.707Z,92.40
2019-04-30T03:06:11.394Z,92.50
2019-04-30T03:08:36.593Z,92.20
2019-04-30T03:11:03.019Z,92.00
2019-04-30T03:13:29.927Z,92.10
2019-04-30T03:15:59.144Z,92.00
2019-04-30T03:18:26.566Z,91.90
2019-04-30T03:20:55.068Z,91.80
2019-04-30T03:23:21.468Z,91.50
2019-04-30T03:25:50.103Z,91.00
2019-04-30T03:28:16.376Z,90.60
2019-04-30T03:30:43.087Z,90.70
2019-04-30T03:33:12.664Z,90.80
2019-04-30T03:35:46.617Z,90.80
2019-04-30T03:38:06.223Z,91.00
2019-04-30T03:40:32.818Z,90.80
2019-04-30T03:42:59.748Z,91.10
2019-04-30T03:45:30.037Z,91.30
2019-04-30T03:47:55.636Z,91.40
2019-04-30T03:50:22.235Z,91.40
2019-04-30T03:52:50.337Z,91.10
2019-04-30T03:55:20.591Z,91.10
2019-04-30T03:57:51.677Z,91.70
2019-04-30T04:00:20.194Z,92.00
2019-04-30T04:02:49.863Z,91.70
2019-04-30T04:05:29.927Z,91.70
2019-04-30T04:07:59.826Z,91.50
2019-04-30T04:10:29.771Z,91.60
2019-04-30T04:12:56.395Z,91.70
2019-04-30T04:15:23.037Z,91.40
2019-04-30T04:17:50.368Z,91.70
2019-04-30T04:20:20.052Z,91.60
2019-04-30T04:22:45.912Z,91.20
2019-04-30T04:25:13.231Z,90.80
2019-04-30T04:27:39.911Z,91.00
2019-04-30T04:30:06.458Z,90.80
2019-04-30T04:32:32.784Z,90.80
2019-04-30T04:35:00.217Z,91.40
2019-04-30T04:37:29.304Z,91.70
2019-04-30T04:39:55.587Z,91.80
2019-04-30T04:42:22.580Z,91.80
2019-04-30T04:44:50.310Z,91.60
2019-04-30T04:47:19.470Z,91.20
2019-04-30T04:49:45.261Z,91.20
2019-04-30T04:52:11.681Z,91.10
2019-04-30T04:54:39.963Z,91.20
2019-04-30T04:57:17.044Z,91.40
2019-04-30T04:59:34.635Z,91.10
2019-04-30T05:02:03.124Z,90.80
2019-04-30T05:04:29.916Z,90.70
2019-04-30T05:06:56.372Z,90.80
2019-04-30T05:09:22.624Z,90.70
2019-04-30T05:11:48.895Z,90.80
2019-04-30T05:14:15.083Z,90.90
2019-04-30T05:16:41.311Z,90.90
2019-04-30T05:19:08.920Z,90.80
2019-04-30T05:21:42.760Z,90.90
2019-04-30T05:24:03.865Z,91.10
2019-04-30T05:26:30.096Z,91.10
2019-04-30T05:28:56.528Z,90.70
2019-04-30T05:31:22.803Z,90.20
2019-04-30T05:33:49.385Z,89.70
2019-04-30T05:36:15.795Z,90.00
2019-04-30T05:38:41.940Z,90.20
2019-04-30T05:41:09.323Z,90.20
2019-04-30T05:43:35.995Z,90.30
2019-04-30T05:46:02.178Z,90.20
2019-04-30T05:48:28.762Z,90.00
2019-04-30T05:50:56.254Z,90.20
2019-04-30T05:53:22.921Z,90.20
2019-04-30T05:55:49.589Z,90.40
2019-04-30T05:58:16.597Z,90.30
2019-04-30T06:00:42.861Z,90.30
2019-04-30T06:03:09.609Z,90.70
2019-04-30T06:05:36.353Z,90.80
2019-04-30T06:08:02.784Z,90.50
2019-04-30T06:10:49.270Z,90.50
2019-04-30T06:13:32.859Z,90.50
2019-04-30T06:16:01.305Z,90.50
2019-04-30T06:18:28.680Z,90.80
2019-04-30T06:20:55.461Z,90.80
2019-04-30T06:23:23.026Z,90.90
2019-04-30T06:25:57.558Z,90.80
2019-04-30T06:28:21.428Z,90.60
2019-04-30T06:30:49.285Z,90.40
2019-04-30T06:33:15.997Z,90.30
2019-04-30T06:35:42.513Z,90.30
2019-04-30T06:38:08.880Z,90.10
2019-04-30T06:40:35.486Z,89.90
2019-04-30T06:43:01.865Z,89.70
2019-04-30T06:45:30.161Z,89.60
2019-04-30T06:47:59.182Z,90.10
2019-04-30T06:50:25.413Z,89.90
2019-04-30T06:52:56.783Z,89.50
2019-04-30T06:55:19.712Z,89.10
2019-04-30T06:57:46.047Z,89.20
2019-04-30T07:00:13.997Z,88.90
2019-04-30T07:02:40.342Z,88.60
2019-04-30T07:05:09.937Z,88.50
2019-04-30T07:07:39.691Z,88.20
2019-04-30T07:10:10.170Z,87.90
2019-04-30T07:12:38.834Z,87.30
2019-04-30T07:15:05.564Z,87.20
2019-04-30T07:17:31.789Z,86.80
2019-04-30T07:19:59.728Z,86.90
2019-04-30T07:22:37.634Z,87.00
2019-04-30T07:24:54.172Z,86.30
2019-04-30T07:27:24.008Z,86.40
2019-04-30T07:29:49.488Z,86.20
2019-04-30T07:32:16.080Z,87.30
2019-04-30T07:34:42.336Z,85.90
2019-04-30T07:37:16.418Z,85.60
2019-04-30T07:39:36.604Z,85.40
2019-04-30T07:42:02.955Z,86.90
2019-04-30T07:44:36.226Z,85.40
2019-04-30T07:46:59.380Z,85.70
2019-04-30T07:49:25.293Z,85.30
2019-04-30T07:51:52.613Z,85.00
2019-04-30T07:54:19.511Z,84.10
2019-04-30T07:56:45.773Z,83.20
2019-04-30T07:59:11.987Z,83.30
2019-04-30T08:01:59.998Z,82.90
2019-04-30T08:04:08.804Z,83.70
2019-04-30T08:06:35.666Z,83.10
2019-04-30T08:09:06.450Z,83.40
2019-04-30T08:11:34.415Z,83.40
2019-04-30T08:14:01.461Z,82.90
2019-04-30T08:16:28.739Z,82.30
2019-04-30T08:18:55.081Z,82.80
2019-04-30T08:21:21.509Z,83.10
2019-04-30T08:23:48.929Z,83.50
2019-04-30T08:26:15.899Z,82.90
2019-04-30T08:28:42.225Z,81.10
2019-04-30T08:31:08.956Z,81.20
2019-04-30T08:33:35.510Z,81.50
2019-04-30T08:36:01.820Z,80.80
2019-04-30T08:38:29.923Z,80.80
2019-04-30T08:40:58.807Z,82.00
2019-04-30T08:43:24.125Z,83.80
2019-04-30T08:45:50.394Z,83.40
2019-04-30T08:48:18.729Z,84.00
2019-04-30T08:50:44.846Z,84.20
2019-04-30T08:53:11.842Z,84.00
2019-04-30T08:55:39.109Z,82.50
2019-04-30T08:58:09.811Z,82.30
2019-04-30T09:00:33.740Z,83.00
2019-04-30T09:02:59.993Z,82.50
2019-04-30T09:05:30.455Z,81.60
2019-04-30T09:07:56.192Z,82.20
2019-04-30T09:10:22.418Z,83.70
2019-04-30T09:12:49.556Z,82.90
2019-04-30T09:15:18.722Z,82.90
2019-04-30T09:17:58.144Z,83.40
2019-04-30T09:20:13.061Z,83.20
2019-04-30T09:22:39.409Z,83.00
2019-04-30T09:25:05.757Z,82.20
2019-04-30T09:27:31.994Z,81.90
2019-04-30T09:29:58.794Z,80.20
2019-04-30T09:32:25.470Z,79.20
2019-04-30T09:34:51.724Z,80.20
2019-04-30T09:37:18.687Z,80.20
2019-04-30T09:39:47.006Z,80.70
2019-04-30T09:42:13.220Z,81.10
2019-04-30T09:44:39.608Z,80.80
2019-04-30T09:47:05.830Z,79.60
2019-04-30T09:49:32.053Z,79.40
2019-04-30T09:51:59.514Z,78.90
2019-04-30T09:54:28.569Z,78.50
2019-04-30T09:56:54.473Z,77.30
2019-04-30T09:59:21.013Z,78.50
2019-04-30T10:01:47.762Z,71.00
2019-04-30T10:04:14.660Z,61.20
2019-04-30T10:06:41.856Z,58.10
2019-04-30T10:09:10.864Z,57.80
2019-04-30T10:11:42.258Z,57.20
2019-04-30T10:14:08.494Z,57.30
2019-04-30T10:16:42.481Z,56.60
2019-04-30T10:19:10.245Z,56.40
2019-04-30T10:21:38.748Z,59.30
2019-04-30T10:24:13.110Z,60.90
2019-04-30T10:26:34.264Z,63.70
2019-04-30T10:29:01.243Z,65.10
2019-04-30T10:31:29.316Z,63.40
2019-04-30T10:33:55.608Z,55.90
2019-04-30T10:36:21.832Z,56.10
2019-04-30T10:38:49.391Z,57.20
2019-04-30T10:41:16.038Z,58.60
2019-04-30T10:43:42.356Z,58.30
2019-04-30T10:46:09.677Z,59.90
2019-04-30T10:48:36.236Z,60.10
2019-04-30T10:51:02.588Z,60.70
2019-04-30T10:53:28.937Z,61.60
2019-04-30T10:55:55.420Z,58.90
2019-04-30T10:58:21.646Z,56.60
2019-04-30T11:00:49.869Z,57.00
2019-04-30T11:03:20.782Z,59.00
2019-04-30T11:05:44.268Z,59.60
2019-04-30T11:08:10.733Z,59.60
2019-04-30T11:10:37.392Z,52.50
2019-04-30T11:13:03.725Z,48.70
2019-04-30T11:15:30.130Z,46.90
2019-04-30T11:17:57.024Z,46.10
2019-04-30T11:20:23.639Z,50.50
2019-04-30T11:22:50.563Z,53.10
2019-04-30T11:25:17.287Z,55.40
2019-04-30T11:27:44.827Z,56.40
2019-04-30T11:30:23.284Z,54.40
2019-04-30T11:32:41.480Z,50.20
2019-04-30T11:35:08.761Z,46.40
2019-04-30T11:37:34.980Z,43.90
2019-04-30T11:40:01.473Z,43.90
2019-04-30T11:42:28.902Z,45.90
2019-04-30T11:44:55.156Z,46.70
2019-04-30T11:47:23.740Z,45.50
2019-04-30T11:49:50.291Z,42.60
2019-04-30T11:52:16.818Z,39.60
2019-04-30T11:54:51.543Z,39.20
2019-04-30T11:57:11.818Z,39.00
2019-04-30T11:59:39.546Z,37.10
2019-04-30T12:02:08.002Z,39.80
2019-04-30T12:04:34.229Z,48.30
2019-04-30T12:07:02.473Z,52.00
2019-04-30T12:09:48.485Z,54.50
2019-04-30T12:12:14.821Z,55.30
2019-04-30T12:14:41.044Z,56.10
2019-04-30T12:17:07.411Z,53.50
2019-04-30T12:19:33.630Z,53.40
2019-04-30T12:21:59.858Z,51.60
2019-04-30T12:24:26.348Z,47.90
2019-04-30T12:26:52.572Z,43.20
2019-04-30T12:29:19.163Z,42.20
2019-04-30T12:31:45.848Z,44.30
2019-04-30T12:34:12.113Z,47.40
2019-04-30T12:36:38.853Z,50.80
2019-04-30T12:39:06.267Z,53.10
2019-04-30T12:41:32.489Z,56.10
2019-04-30T12:43:58.785Z,54.70
2019-04-30T12:46:25.025Z,52.10
2019-04-30T12:49:10.254Z,50.00
2019-04-30T12:51:45.587Z,49.30
2019-04-30T12:54:14.808Z,49.30
2019-04-30T12:59:34.514Z,46.90
2019-04-30T13:02:00.888Z,47.70
2019-04-30T13:04:29.215Z,48.30
2019-04-30T13:06:55.651Z,50.50
2019-04-30T13:09:22.718Z,49.50
2019-04-30T13:11:50.780Z,49.60
2019-04-30T13:14:19.818Z,49.50
2019-04-30T13:16:49.034Z,46.20
2019-04-30T13:19:15.302Z,48.00
2019-04-30T13:21:41.854Z,50.20
2019-04-30T13:24:08.367Z,52.60
2019-04-30T13:26:34.663Z,54.40
2019-04-30T13:29:09.170Z,52.80
2019-04-30T13:31:35.696Z,52.50
2019-04-30T13:34:04.274Z,56.20
2019-04-30T13:36:30.533Z,57.80
2019-04-30T13:38:59.504Z,57.60
2019-04-30T13:41:29.749Z,56.50
2019-04-30T13:43:58.757Z,56.60
2019-04-30T13:46:25.319Z,55.50
2019-04-30T13:48:52.148Z,54.90
2019-04-30T13:51:18.944Z,53.80
2019-04-30T13:53:45.188Z,54.20
2019-04-30T13:56:11.547Z,55.00
2019-04-30T13:58:38.109Z,55.70
2019-04-30T14:01:05.618Z,54.90
2019-04-30T14:03:34.046Z,55.10
2019-04-30T14:06:00.470Z,55.20
2019-04-30T14:08:29.093Z,53.40
2019-04-30T14:10:55.753Z,53.80
2019-04-30T14:13:22.481Z,56.30
2019-04-30T14:15:49.079Z,55.50
2019-04-30T14:18:27.972Z,56.20
2019-04-30T14:20:43.955Z,57.40
2019-04-30T14:23:10.838Z,56.70
2019-04-30T14:25:37.221Z,57.00
2019-04-30T14:28:04.290Z,57.10
2019-04-30T14:30:31.109Z,56.20
2019-04-30T14:32:59.314Z,55.00
2019-04-30T14:35:25.825Z,54.90
2019-04-30T14:37:52.489Z,54.20
2019-04-30T14:40:20.357Z,55.70
2019-04-30T14:42:52.125Z,56.60
2019-04-30T14:45:24.419Z,55.80
2019-04-30T14:48:05.837Z,57.40
2019-04-30T14:50:34.512Z,57.80
2019-04-30T14:53:02.893Z,58.10
2019-04-30T14:55:32.587Z,59.20
2019-04-30T14:58:20.274Z,58.70
2019-04-30T15:01:06.212Z,58.30
2019-04-30T15:03:34.505Z,57.90
2019-04-30T15:06:00.958Z,57.30
2019-04-30T15:08:29.192Z,57.70
2019-04-30T15:10:55.796Z,58.40
2019-04-30T15:13:22.404Z,58.40
2019-04-30T15:15:49.204Z,57.40
2019-04-30T15:18:16.112Z,58.40
2019-04-30T15:20:42.825Z,57.80
2019-04-30T15:23:19.043Z,56.10
2019-04-30T15:25:42.181Z,55.60
2019-04-30T15:28:09.865Z,56.00
2019-04-30T15:30:36.248Z,56.60
2019-04-30T15:33:09.366Z,55.70
2019-04-30T15:35:35.673Z,57.90
2019-04-30T15:38:02.021Z,59.20
2019-04-30T15:40:28.882Z,59.30
2019-04-30T15:42:57.204Z,59.40
2019-04-30T15:45:23.458Z,59.10
2019-04-30T15:47:49.749Z,61.00
2019-04-30T15:50:16.312Z,60.80
2019-04-30T15:52:42.576Z,59.20
2019-04-30T15:55:12.129Z,58.60
2019-04-30T15:57:59.339Z,57.60
2019-04-30T16:00:29.225Z,59.30
2019-04-30T16:03:00.789Z,60.10
2019-04-30T16:05:31.946Z,58.20
2019-04-30T16:08:00.482Z,57.90
2019-04-30T16:10:45.642Z,59.70
2019-04-30T16:13:14.129Z,59.60
2019-04-30T16:15:40.454Z,60.00
2019-04-30T16:18:06.789Z,61.40
2019-04-30T16:20:33.409Z,60.20
2019-04-30T16:23:00.270Z,59.10
2019-04-30T16:25:26.664Z,59.00
2019-04-30T16:27:52.876Z,59.70
2019-04-30T16:30:19.667Z,61.40
2019-04-30T16:32:46.236Z,61.50
2019-04-30T16:35:12.944Z,60.20
2019-04-30T16:37:39.429Z,61.10
2019-04-30T16:40:06.225Z,61.30
2019-04-30T16:42:32.787Z,61.60
2019-04-30T16:45:00.843Z,59.60
2019-04-30T16:47:29.589Z,61.70
2019-04-30T16:49:55.909Z,62.40
2019-04-30T16:52:22.502Z,63.00
2019-04-30T16:54:49.698Z,63.90
2019-04-30T16:57:16.596Z,64.70
2019-04-30T16:59:43.277Z,64.80
2019-04-30T17:02:10.096Z,65.10
2019-04-30T17:04:39.014Z,66.40
2019-04-30T17:07:24.643Z,65.40
2019-04-30T17:09:59.080Z,64.70
2019-04-30T17:12:29.310Z,65.80
2019-04-30T17:14:58.675Z,65.70
2019-04-30T17:17:25.394Z,66.50
2019-04-30T17:19:51.975Z,67.20
2019-04-30T17:22:18.202Z,68.30
2019-04-30T17:24:44.874Z,68.20
2019-04-30T17:27:19.323Z,68.70
2019-04-30T17:29:39.809Z,68.50
2019-04-30T17:32:08.380Z,68.40
2019-04-30T17:34:34.690Z,68.80
2019-04-30T17:37:01.348Z,69.00
2019-04-30T17:39:28.061Z,69.30
2019-04-30T17:41:54.668Z,69.50
2019-04-30T17:44:40.745Z,68.80
2019-04-30T17:47:09.030Z,69.00
2019-04-30T17:49:35.516Z,70.20
2019-04-30T17:52:02.236Z,70.70
2019-04-30T17:54:28.813Z,71.30
2019-04-30T17:56:55.308Z,71.70
2019-04-30T17:59:21.568Z,72.20
2019-04-30T18:01:52.961Z,72.80
2019-04-30T18:04:22.025Z,73.00
2019-04-30T18:06:48.444Z,73.90
2019-04-30T18:09:19.097Z,74.20
2019-04-30T18:11:45.764Z,74.70
2019-04-30T18:14:12.093Z,74.90
2019-04-30T18:16:38.816Z,75.30
2019-04-30T18:19:10.145Z,75.70
2019-04-30T18:21:40.069Z,75.90
2019-04-30T18:24:11.005Z,76.70
2019-04-30T18:26:42.175Z,77.40
2019-04-30T18:29:08.665Z,77.60
2019-04-30T18:31:35.308Z,78.30
2019-04-30T18:34:01.534Z,78.40
2019-04-30T18:36:29.410Z,78.80
2019-04-30T18:38:56.020Z,78.90
2019-04-30T18:41:22.306Z,79.30
2019-04-30T18:43:48.910Z,79.30
2019-04-30T18:46:15.528Z,80.20
2019-04-30T18:48:41.813Z,79.80
2019-04-30T18:51:23.828Z,79.50
2019-04-30T18:53:39.710Z,79.80
2019-04-30T18:56:09.946Z,79.80
2019-04-30T18:58:39.873Z,80.20
2019-04-30T19:01:03.642Z,80.70
2019-04-30T19:03:30.237Z,81.20
2019-04-30T19:05:58.759Z,81.10
2019-04-30T19:08:45.321Z,80.80
2019-04-30T19:11:19.833Z,81.60
2019-04-30T19:13:53.728Z,82.50
2019-04-30T19:16:25.848Z,82.80
2019-04-30T19:18:55.794Z,83.10
2019-04-30T19:21:23.027Z,83.50
2019-04-30T19:23:49.585Z,83.90
2019-04-30T19:26:16.253Z,84.20
2019-04-30T19:28:42.860Z,84.70
2019-04-30T19:31:11.620Z,84.80
2019-04-30T19:33:38.921Z,85.70
2019-04-30T19:36:05.232Z,85.20
2019-04-30T19:38:31.917Z,85.70
2019-04-30T19:40:58.523Z,86.20
2019-04-30T19:43:25.181Z,85.90
2019-04-30T19:45:51.396Z,85.80
2019-04-30T19:48:17.656Z,86.40
2019-04-30T19:50:44.290Z,87.00
2019-04-30T19:53:10.880Z,86.80
2019-04-30T19:55:39.410Z,87.00
2019-04-30T19:58:06.253Z,86.90
2019-04-30T20:00:32.973Z,86.70
2019-04-30T20:02:59.941Z,87.10
2019-04-30T20:05:28.575Z,87.30
2019-04-30T20:07:54.815Z,87.60
2019-04-30T20:10:21.453Z,87.40
2019-04-30T20:12:49.770Z,87.50
2019-04-30T20:15:19.577Z,88.80
2019-04-30T20:17:44.314Z,88.90
2019-04-30T20:20:11.305Z,89.20
2019-04-30T20:22:38.973Z,88.00
2019-04-30T20:25:06.211Z,87.40
2019-04-30T20:27:32.841Z,86.80
2019-04-30T20:29:59.505Z,86.50
2019-04-30T20:32:33.952Z,86.00
2019-04-30T20:34:54.423Z,86.10
2019-04-30T20:37:21.020Z,88.10
2019-04-30T20:39:58.638Z,87.30
2019-04-30T20:42:25.372Z,87.00
2019-04-30T20:44:51.611Z,86.90
2019-04-30T20:47:18.776Z,87.00
2019-04-30T20:49:46.553Z,87.50
2019-04-30T20:52:13.184Z,87.20
2019-04-30T20:54:39.795Z,87.40
2019-04-30T20:57:08.607Z,87.80
2019-04-30T20:59:34.728Z,88.40
2019-04-30T21:02:01.437Z,88.60
2019-04-30T21:04:28.004Z,87.80
2019-04-30T21:06:54.612Z,87.60
2019-04-30T21:09:20.884Z,88.40
2019-04-30T21:12:08.863Z,88.10
2019-04-30T21:14:35.065Z,88.20
2019-04-30T21:17:01.652Z,88.10
2019-04-30T21:19:28.284Z,89.50
2019-04-30T21:21:54.573Z,88.40
2019-04-30T21:24:21.156Z,87.70
2019-04-30T21:26:47.417Z,87.70
2019-04-30T21:29:16.064Z,87.90
2019-04-30T21:31:52.864Z,87.50
2019-04-30T21:34:26.957Z,88.60
2019-04-30T21:36:53.189Z,90.10
2019-04-30T21:39:20.114Z,91.20
2019-04-30T21:41:46.466Z,91.50
2019-04-30T21:44:12.723Z,91.60
2019-04-30T21:46:39.549Z,91.10
2019-04-30T21:49:06.020Z,90.50
2019-04-30T21:51:32.275Z,90.80
2019-04-30T21:53:58.584Z,91.20
2019-04-30T21:56:24.816Z,91.80
2019-04-30T21:58:50.936Z,91.30
2019-04-30T22:01:19.480Z,90.90
2019-04-30T22:03:46.701Z,91.20
2019-04-30T22:06:13.160Z,90.90
2019-04-30T22:08:39.283Z,90.20
2019-04-30T22:11:05.401Z,90.10
2019-04-30T22:13:31.652Z,90.30
2019-04-30T22:15:57.873Z,90.20
2019-04-30T22:18:24.088Z,90.90
2019-04-30T22:20:50.328Z,90.50
2019-04-30T22:23:16.453Z,90.00
2019-04-30T22:25:42.692Z,89.90
2019-04-30T22:28:08.815Z,90.30
2019-04-30T22:30:35.264Z,90.80
2019-04-30T22:33:01.485Z,91.00
2019-04-30T22:35:29.644Z,91.10
2019-04-30T22:37:59.256Z,91.00
2019-04-30T22:40:25.788Z,91.10
2019-04-30T22:42:52.043Z,91.90
2019-04-30T22:45:20.248Z,92.00
2019-04-30T22:47:46.504Z,91.70
2019-04-30T22:50:12.957Z,91.20
2019-04-30T22:52:39.224Z,91.50
2019-04-30T22:55:06.644Z,91.70
2019-04-30T22:57:32.756Z,91.60
2019-04-30T22:59:58.921Z,91.20
2019-04-30T23:02:37.543Z,91.20
2019-04-30T23:05:06.990Z,91.00
2019-04-30T23:07:33.568Z,90.70
2019-04-30T23:09:59.825Z,90.60
2019-04-30T23:12:26.041Z,90.20
2019-04-30T23:14:52.314Z,89.90
2019-04-30T23:17:18.524Z,90.10
2019-04-30T23:19:49.319Z,90.00
2019-04-30T23:22:12.804Z,89.30
2019-04-30T23:24:39.029Z,88.20
2019-04-30T23:27:05.182Z,88.80
2019-04-30T23:29:31.400Z,88.20
2019-04-30T23:31:57.662Z,88.40
2019-04-30T23:34:23.891Z,88.70
2019-04-30T23:36:50.357Z,88.90
2019-04-30T23:39:16.596Z,90.00
2019-04-30T23:41:42.824Z,90.50
2019-04-30T23:44:09.095Z,90.50
2019-04-30T23:46:35.328Z,89.40
2019-04-30T23:49:01.553Z,89.10
2019-04-30T23:51:27.930Z,88.90
2019-04-30T23:53:54.770Z,90.10
2019-04-30T23:56:21.004Z,90.20
2019-04-30T23:58:47.217Z,90.50
